sensor_id;sensor_type;location;lat;lon;timestamp;P1;durP1;ratioP1;P2;durP2;ratioP2
2396;SDS011;1209;48.410;9.054;2024-02-21T00:01:03;8.87;;;4.33;;
2396;SDS011;1209;48.410;9.054;2024-02-21T00:03:29;13.07;;;4.83;;
2396;SDS011;1209;48.410;9.054;2024-02-21T00:05:54;12.07;;;4.50;;
2396;SDS011;1209;48.410;9.054;2024-02-21T00:08:20;6.03;;;3.80;;
2396;SDS011;1209;48.410;9.054;2024-02-21T00:10:45;6.10;;;4.00;;
2396;SDS011;1209;48.410;9.054;2024-02-21T00:13:10;6.47;;;4.30;;
2396;SDS011;1209;48.410;9.054;2024-02-21T00:15:35;5.70;;;3.87;;
2396;SDS011;1209;48.410;9.054;2024-02-21T00:18:01;7.13;;;4.50;;
2396;SDS011;1209;48.410;9.054;2024-02-21T00:20:26;9.30;;;3.50;;
2396;SDS011;1209;48.410;9.054;2024-02-21T00:22:51;5.17;;;4.17;;
2396;SDS011;1209;48.410;9.054;2024-02-21T00:25:17;4.97;;;4.00;;
2396;SDS011;1209;48.410;9.054;2024-02-21T00:27:42;5.13;;;3.70;;
2396;SDS011;1209;48.410;9.054;2024-02-21T00:30:08;5.90;;;3.93;;
2396;SDS011;1209;48.410;9.054;2024-02-21T00:32:34;5.73;;;3.93;;
2396;SDS011;1209;48.410;9.054;2024-02-21T00:34:59;5.10;;;3.33;;
2396;SDS011;1209;48.410;9.054;2024-02-21T00:37:26;5.10;;;3.83;;
2396;SDS011;1209;48.410;9.054;2024-02-21T00:39:51;9.77;;;5.10;;
2396;SDS011;1209;48.410;9.054;2024-02-21T00:42:17;9.10;;;3.90;;
2396;SDS011;1209;48.410;9.054;2024-02-21T00:44:43;7.13;;;4.17;;
2396;SDS011;1209;48.410;9.054;2024-02-21T00:47:10;8.83;;;4.00;;
2396;SDS011;1209;48.410;9.054;2024-02-21T00:49:35;4.57;;;3.73;;
2396;SDS011;1209;48.410;9.054;2024-02-21T00:52:00;6.53;;;4.00;;
2396;SDS011;1209;48.410;9.054;2024-02-21T00:54:26;8.37;;;4.20;;
2396;SDS011;1209;48.410;9.054;2024-02-21T00:56:51;8.17;;;4.70;;
2396;SDS011;1209;48.410;9.054;2024-02-21T00:59:16;7.27;;;4.23;;
2396;SDS011;1209;48.410;9.054;2024-02-21T01:01:41;5.53;;;3.00;;
2396;SDS011;1209;48.410;9.054;2024-02-21T01:04:09;11.67;;;4.17;;
2396;SDS011;1209;48.410;9.054;2024-02-21T01:06:34;12.03;;;3.63;;
2396;SDS011;1209;48.410;9.054;2024-02-21T01:08:59;9.47;;;4.03;;
2396;SDS011;1209;48.410;9.054;2024-02-21T01:11:25;4.83;;;3.50;;
2396;SDS011;1209;48.410;9.054;2024-02-21T01:13:50;8.63;;;2.97;;
2396;SDS011;1209;48.410;9.054;2024-02-21T01:16:15;6.47;;;3.70;;
2396;SDS011;1209;48.410;9.054;2024-02-21T01:18:41;4.73;;;4.07;;
2396;SDS011;1209;48.410;9.054;2024-02-21T01:21:06;11.27;;;3.90;;
2396;SDS011;1209;48.410;9.054;2024-02-21T01:23:35;9.03;;;3.77;;
2396;SDS011;1209;48.410;9.054;2024-02-21T01:26:02;5.30;;;3.63;;
2396;SDS011;1209;48.410;9.054;2024-02-21T01:28:28;7.20;;;4.13;;
2396;SDS011;1209;48.410;9.054;2024-02-21T01:30:53;7.43;;;3.90;;
2396;SDS011;1209;48.410;9.054;2024-02-21T01:33:19;3.93;;;3.33;;
2396;SDS011;1209;48.410;9.054;2024-02-21T01:35:44;4.63;;;3.67;;
2396;SDS011;1209;48.410;9.054;2024-02-21T01:38:09;4.83;;;3.57;;
2396;SDS011;1209;48.410;9.054;2024-02-21T01:40:35;3.73;;;3.03;;
2396;SDS011;1209;48.410;9.054;2024-02-21T01:43:02;12.30;;;4.90;;
2396;SDS011;1209;48.410;9.054;2024-02-21T01:45:27;10.50;;;5.73;;
2396;SDS011;1209;48.410;9.054;2024-02-21T01:47:52;11.50;;;5.90;;
2396;SDS011;1209;48.410;9.054;2024-02-21T01:50:18;5.77;;;4.93;;
2396;SDS011;1209;48.410;9.054;2024-02-21T01:52:43;6.03;;;5.07;;
2396;SDS011;1209;48.410;9.054;2024-02-21T01:55:12;7.37;;;5.33;;
2396;SDS011;1209;48.410;9.054;2024-02-21T01:57:39;5.63;;;3.93;;
2396;SDS011;1209;48.410;9.054;2024-02-21T02:00:06;7.30;;;4.93;;
2396;SDS011;1209;48.410;9.054;2024-02-21T02:02:32;8.20;;;4.20;;
2396;SDS011;1209;48.410;9.054;2024-02-21T02:04:57;5.03;;;4.07;;
2396;SDS011;1209;48.410;9.054;2024-02-21T02:07:23;9.13;;;4.63;;
2396;SDS011;1209;48.410;9.054;2024-02-21T02:09:49;7.13;;;4.63;;
2396;SDS011;1209;48.410;9.054;2024-02-21T02:12:14;9.90;;;4.50;;
2396;SDS011;1209;48.410;9.054;2024-02-21T02:14:40;6.17;;;4.07;;
2396;SDS011;1209;48.410;9.054;2024-02-21T02:17:05;6.67;;;4.77;;
2396;SDS011;1209;48.410;9.054;2024-02-21T02:19:30;6.37;;;4.20;;
2396;SDS011;1209;48.410;9.054;2024-02-21T02:21:58;9.27;;;4.23;;
2396;SDS011;1209;48.410;9.054;2024-02-21T02:24:28;6.87;;;3.83;;
2396;SDS011;1209;48.410;9.054;2024-02-21T02:26:53;4.53;;;4.10;;
2396;SDS011;1209;48.410;9.054;2024-02-21T02:29:19;5.87;;;3.77;;
2396;SDS011;1209;48.410;9.054;2024-02-21T02:31:44;6.57;;;4.70;;
2396;SDS011;1209;48.410;9.054;2024-02-21T02:34:09;3.43;;;3.13;;
2396;SDS011;1209;48.410;9.054;2024-02-21T02:36:35;4.87;;;3.73;;
2396;SDS011;1209;48.410;9.054;2024-02-21T02:39:00;4.57;;;3.13;;
2396;SDS011;1209;48.410;9.054;2024-02-21T02:41:26;6.70;;;3.80;;
2396;SDS011;1209;48.410;9.054;2024-02-21T02:43:51;6.70;;;3.77;;
2396;SDS011;1209;48.410;9.054;2024-02-21T02:46:16;5.97;;;4.20;;
2396;SDS011;1209;48.410;9.054;2024-02-21T02:48:42;7.20;;;4.20;;
2396;SDS011;1209;48.410;9.054;2024-02-21T02:51:07;8.90;;;3.97;;
2396;SDS011;1209;48.410;9.054;2024-02-21T02:53:32;3.77;;;3.23;;
2396;SDS011;1209;48.410;9.054;2024-02-21T02:55:57;6.00;;;3.20;;
2396;SDS011;1209;48.410;9.054;2024-02-21T02:58:23;6.50;;;4.30;;
2396;SDS011;1209;48.410;9.054;2024-02-21T03:00:48;10.73;;;3.83;;
2396;SDS011;1209;48.410;9.054;2024-02-21T03:03:13;5.20;;;3.47;;
2396;SDS011;1209;48.410;9.054;2024-02-21T03:05:38;3.40;;;3.10;;
2396;SDS011;1209;48.410;9.054;2024-02-21T03:08:04;10.10;;;3.40;;
2396;SDS011;1209;48.410;9.054;2024-02-21T03:10:32;3.30;;;2.83;;
2396;SDS011;1209;48.410;9.054;2024-02-21T03:12:58;5.10;;;2.93;;
2396;SDS011;1209;48.410;9.054;2024-02-21T03:15:23;3.13;;;2.83;;
2396;SDS011;1209;48.410;9.054;2024-02-21T03:17:49;6.70;;;2.50;;
2396;SDS011;1209;48.410;9.054;2024-02-21T03:20:14;6.70;;;2.47;;
2396;SDS011;1209;48.410;9.054;2024-02-21T03:22:40;4.10;;;2.30;;
2396;SDS011;1209;48.410;9.054;2024-02-21T03:25:06;15.43;;;2.37;;
2396;SDS011;1209;48.410;9.054;2024-02-21T03:27:32;2.20;;;1.80;;
2396;SDS011;1209;48.410;9.054;2024-02-21T03:29:57;4.70;;;2.43;;
2396;SDS011;1209;48.410;9.054;2024-02-21T03:32:23;5.73;;;2.37;;
2396;SDS011;1209;48.410;9.054;2024-02-21T03:34:49;2.30;;;2.10;;
2396;SDS011;1209;48.410;9.054;2024-02-21T03:37:14;4.70;;;2.20;;
2396;SDS011;1209;48.410;9.054;2024-02-21T03:39:40;3.80;;;2.20;;
2396;SDS011;1209;48.410;9.054;2024-02-21T03:42:06;4.90;;;2.60;;
2396;SDS011;1209;48.410;9.054;2024-02-21T03:44:31;5.87;;;2.47;;
2396;SDS011;1209;48.410;9.054;2024-02-21T03:46:57;4.57;;;2.40;;
2396;SDS011;1209;48.410;9.054;2024-02-21T03:49:23;8.73;;;2.77;;
2396;SDS011;1209;48.410;9.054;2024-02-21T03:51:48;6.37;;;2.30;;
2396;SDS011;1209;48.410;9.054;2024-02-21T03:54:13;2.03;;;1.90;;
2396;SDS011;1209;48.410;9.054;2024-02-21T03:56:39;3.60;;;2.27;;
2396;SDS011;1209;48.410;9.054;2024-02-21T03:59:05;2.43;;;1.90;;
2396;SDS011;1209;48.410;9.054;2024-02-21T04:01:36;6.00;;;2.37;;
2396;SDS011;1209;48.410;9.054;2024-02-21T04:04:02;3.93;;;2.60;;
2396;SDS011;1209;48.410;9.054;2024-02-21T04:06:27;5.50;;;2.23;;
2396;SDS011;1209;48.410;9.054;2024-02-21T04:08:53;5.80;;;2.20;;
2396;SDS011;1209;48.410;9.054;2024-02-21T04:11:18;4.53;;;2.53;;
2396;SDS011;1209;48.410;9.054;2024-02-21T04:13:44;6.90;;;3.17;;
2396;SDS011;1209;48.410;9.054;2024-02-21T04:16:09;5.37;;;2.40;;
2396;SDS011;1209;48.410;9.054;2024-02-21T04:18:35;4.93;;;3.13;;
2396;SDS011;1209;48.410;9.054;2024-02-21T04:21:00;3.30;;;2.20;;
2396;SDS011;1209;48.410;9.054;2024-02-21T04:23:26;3.40;;;2.17;;
2396;SDS011;1209;48.410;9.054;2024-02-21T04:25:51;3.17;;;2.10;;
2396;SDS011;1209;48.410;9.054;2024-02-21T04:28:17;5.70;;;2.57;;
2396;SDS011;1209;48.410;9.054;2024-02-21T04:30:42;6.53;;;2.87;;
2396;SDS011;1209;48.410;9.054;2024-02-21T04:33:07;4.50;;;2.50;;
2396;SDS011;1209;48.410;9.054;2024-02-21T04:35:33;4.57;;;2.73;;
2396;SDS011;1209;48.410;9.054;2024-02-21T04:37:58;5.97;;;2.70;;
2396;SDS011;1209;48.410;9.054;2024-02-21T04:40:23;9.83;;;3.37;;
2396;SDS011;1209;48.410;9.054;2024-02-21T04:42:48;4.77;;;2.50;;
2396;SDS011;1209;48.410;9.054;2024-02-21T04:45:14;3.47;;;2.63;;
2396;SDS011;1209;48.410;9.054;2024-02-21T04:47:39;5.40;;;2.87;;
2396;SDS011;1209;48.410;9.054;2024-02-21T04:50:04;3.13;;;2.13;;
2396;SDS011;1209;48.410;9.054;2024-02-21T04:52:31;3.53;;;2.33;;
2396;SDS011;1209;48.410;9.054;2024-02-21T04:54:56;3.87;;;2.77;;
2396;SDS011;1209;48.410;9.054;2024-02-21T04:57:21;4.60;;;3.27;;
2396;SDS011;1209;48.410;9.054;2024-02-21T04:59:46;5.07;;;2.97;;
2396;SDS011;1209;48.410;9.054;2024-02-21T05:02:13;5.10;;;2.83;;
2396;SDS011;1209;48.410;9.054;2024-02-21T05:04:38;5.60;;;2.30;;
2396;SDS011;1209;48.410;9.054;2024-02-21T05:07:05;6.93;;;2.90;;
2396;SDS011;1209;48.410;9.054;2024-02-21T05:09:30;3.90;;;2.73;;
2396;SDS011;1209;48.410;9.054;2024-02-21T05:11:56;3.50;;;2.67;;
2396;SDS011;1209;48.410;9.054;2024-02-21T05:14:23;5.23;;;2.93;;
2396;SDS011;1209;48.410;9.054;2024-02-21T05:16:48;11.13;;;3.50;;
2396;SDS011;1209;48.410;9.054;2024-02-21T05:19:13;5.40;;;3.33;;
2396;SDS011;1209;48.410;9.054;2024-02-21T05:21:39;7.50;;;3.40;;
2396;SDS011;1209;48.410;9.054;2024-02-21T05:24:04;7.63;;;3.60;;
2396;SDS011;1209;48.410;9.054;2024-02-21T05:26:30;3.97;;;2.90;;
2396;SDS011;1209;48.410;9.054;2024-02-21T05:28:55;7.47;;;3.30;;
2396;SDS011;1209;48.410;9.054;2024-02-21T05:31:20;7.77;;;3.63;;
2396;SDS011;1209;48.410;9.054;2024-02-21T05:33:46;6.23;;;3.80;;
2396;SDS011;1209;48.410;9.054;2024-02-21T05:36:12;7.27;;;4.03;;
2396;SDS011;1209;48.410;9.054;2024-02-21T05:38:38;9.17;;;4.57;;
2396;SDS011;1209;48.410;9.054;2024-02-21T05:41:04;7.90;;;3.60;;
2396;SDS011;1209;48.410;9.054;2024-02-21T05:43:29;6.20;;;3.60;;
2396;SDS011;1209;48.410;9.054;2024-02-21T05:45:55;5.93;;;3.40;;
2396;SDS011;1209;48.410;9.054;2024-02-21T05:48:21;9.40;;;3.83;;
2396;SDS011;1209;48.410;9.054;2024-02-21T05:50:47;10.63;;;4.60;;
2396;SDS011;1209;48.410;9.054;2024-02-21T05:53:12;13.13;;;5.10;;
2396;SDS011;1209;48.410;9.054;2024-02-21T05:55:38;10.67;;;5.43;;
2396;SDS011;1209;48.410;9.054;2024-02-21T05:58:04;9.97;;;5.70;;
2396;SDS011;1209;48.410;9.054;2024-02-21T06:00:30;9.23;;;5.00;;
2396;SDS011;1209;48.410;9.054;2024-02-21T06:02:56;10.10;;;5.63;;
2396;SDS011;1209;48.410;9.054;2024-02-21T06:05:21;7.73;;;5.00;;
2396;SDS011;1209;48.410;9.054;2024-02-21T06:07:46;7.40;;;5.00;;
2396;SDS011;1209;48.410;9.054;2024-02-21T06:10:11;10.73;;;5.27;;
2396;SDS011;1209;48.410;9.054;2024-02-21T06:12:37;9.80;;;4.40;;
2396;SDS011;1209;48.410;9.054;2024-02-21T06:15:02;6.90;;;4.90;;
2396;SDS011;1209;48.410;9.054;2024-02-21T06:17:28;6.50;;;4.70;;
2396;SDS011;1209;48.410;9.054;2024-02-21T06:19:53;9.70;;;6.33;;
2396;SDS011;1209;48.410;9.054;2024-02-21T06:22:18;7.70;;;5.67;;
2396;SDS011;1209;48.410;9.054;2024-02-21T06:24:43;9.93;;;4.33;;
2396;SDS011;1209;48.410;9.054;2024-02-21T06:27:09;10.27;;;4.93;;
2396;SDS011;1209;48.410;9.054;2024-02-21T06:29:36;5.90;;;4.53;;
2396;SDS011;1209;48.410;9.054;2024-02-21T06:32:01;6.27;;;4.87;;
2396;SDS011;1209;48.410;9.054;2024-02-21T06:34:27;9.03;;;5.13;;
2396;SDS011;1209;48.410;9.054;2024-02-21T06:36:52;6.10;;;4.60;;
2396;SDS011;1209;48.410;9.054;2024-02-21T06:39:18;6.60;;;4.57;;
2396;SDS011;1209;48.410;9.054;2024-02-21T06:41:43;7.60;;;4.67;;
2396;SDS011;1209;48.410;9.054;2024-02-21T06:44:09;7.43;;;4.73;;
2396;SDS011;1209;48.410;9.054;2024-02-21T06:46:34;7.50;;;4.17;;
2396;SDS011;1209;48.410;9.054;2024-02-21T06:49:00;11.90;;;4.60;;
2396;SDS011;1209;48.410;9.054;2024-02-21T06:51:26;8.90;;;4.23;;
2396;SDS011;1209;48.410;9.054;2024-02-21T06:53:52;6.97;;;3.50;;
2396;SDS011;1209;48.410;9.054;2024-02-21T06:56:18;6.10;;;3.90;;
2396;SDS011;1209;48.410;9.054;2024-02-21T06:58:44;4.60;;;3.90;;
2396;SDS011;1209;48.410;9.054;2024-02-21T07:01:09;7.50;;;3.60;;
2396;SDS011;1209;48.410;9.054;2024-02-21T07:03:35;4.27;;;3.27;;
2396;SDS011;1209;48.410;9.054;2024-02-21T07:06:00;5.83;;;4.10;;
2396;SDS011;1209;48.410;9.054;2024-02-21T07:08:26;8.10;;;5.20;;
2396;SDS011;1209;48.410;9.054;2024-02-21T07:10:51;4.90;;;4.10;;
2396;SDS011;1209;48.410;9.054;2024-02-21T07:13:16;8.27;;;6.00;;
2396;SDS011;1209;48.410;9.054;2024-02-21T07:15:42;16.63;;;7.70;;
2396;SDS011;1209;48.410;9.054;2024-02-21T07:18:07;17.20;;;10.40;;
2396;SDS011;1209;48.410;9.054;2024-02-21T07:20:33;19.37;;;11.00;;
2396;SDS011;1209;48.410;9.054;2024-02-21T07:22:58;11.53;;;8.60;;
2396;SDS011;1209;48.410;9.054;2024-02-21T07:25:24;11.50;;;8.70;;
2396;SDS011;1209;48.410;9.054;2024-02-21T07:27:49;11.50;;;6.90;;
2396;SDS011;1209;48.410;9.054;2024-02-21T07:30:15;10.63;;;6.97;;
2396;SDS011;1209;48.410;9.054;2024-02-21T07:32:40;12.43;;;5.20;;
2396;SDS011;1209;48.410;9.054;2024-02-21T07:35:05;6.50;;;5.03;;
2396;SDS011;1209;48.410;9.054;2024-02-21T07:37:35;24.30;;;12.03;;
2396;SDS011;1209;48.410;9.054;2024-02-21T07:40:01;31.60;;;14.90;;
2396;SDS011;1209;48.410;9.054;2024-02-21T07:42:26;16.43;;;8.67;;
2396;SDS011;1209;48.410;9.054;2024-02-21T07:44:51;12.23;;;5.50;;
2396;SDS011;1209;48.410;9.054;2024-02-21T07:47:16;11.40;;;5.30;;
2396;SDS011;1209;48.410;9.054;2024-02-21T07:49:44;5.67;;;4.13;;
2396;SDS011;1209;48.410;9.054;2024-02-21T07:52:10;5.23;;;3.90;;
2396;SDS011;1209;48.410;9.054;2024-02-21T07:54:36;7.07;;;3.90;;
2396;SDS011;1209;48.410;9.054;2024-02-21T07:57:01;5.60;;;3.40;;
2396;SDS011;1209;48.410;9.054;2024-02-21T07:59:27;4.60;;;3.73;;
2396;SDS011;1209;48.410;9.054;2024-02-21T08:01:55;4.90;;;3.63;;
2396;SDS011;1209;48.410;9.054;2024-02-21T08:04:21;8.80;;;4.47;;
2396;SDS011;1209;48.410;9.054;2024-02-21T08:06:50;6.80;;;3.70;;
2396;SDS011;1209;48.410;9.054;2024-02-21T08:09:18;6.53;;;3.80;;
2396;SDS011;1209;48.410;9.054;2024-02-21T08:11:43;5.03;;;3.30;;
2396;SDS011;1209;48.410;9.054;2024-02-21T08:14:08;8.13;;;4.20;;
2396;SDS011;1209;48.410;9.054;2024-02-21T08:16:34;8.13;;;4.07;;
2396;SDS011;1209;48.410;9.054;2024-02-21T08:18:59;6.77;;;3.30;;
2396;SDS011;1209;48.410;9.054;2024-02-21T08:21:26;4.43;;;3.17;;
2396;SDS011;1209;48.410;9.054;2024-02-21T08:23:51;6.77;;;3.33;;
2396;SDS011;1209;48.410;9.054;2024-02-21T08:26:18;4.13;;;3.30;;
2396;SDS011;1209;48.410;9.054;2024-02-21T08:28:43;7.40;;;4.23;;
2396;SDS011;1209;48.410;9.054;2024-02-21T08:31:08;10.57;;;5.50;;
2396;SDS011;1209;48.410;9.054;2024-02-21T08:33:33;3.77;;;3.30;;
2396;SDS011;1209;48.410;9.054;2024-02-21T08:35:59;10.73;;;4.00;;
2396;SDS011;1209;48.410;9.054;2024-02-21T08:38:24;5.67;;;3.60;;
2396;SDS011;1209;48.410;9.054;2024-02-21T08:40:50;4.07;;;3.10;;
2396;SDS011;1209;48.410;9.054;2024-02-21T08:43:15;4.57;;;3.40;;
2396;SDS011;1209;48.410;9.054;2024-02-21T08:45:40;4.00;;;2.60;;
2396;SDS011;1209;48.410;9.054;2024-02-21T08:48:06;8.40;;;3.83;;
2396;SDS011;1209;48.410;9.054;2024-02-21T08:50:31;4.20;;;3.03;;
2396;SDS011;1209;48.410;9.054;2024-02-21T08:52:56;6.80;;;2.90;;
2396;SDS011;1209;48.410;9.054;2024-02-21T08:55:22;4.37;;;3.13;;
2396;SDS011;1209;48.410;9.054;2024-02-21T08:57:49;4.63;;;3.50;;
2396;SDS011;1209;48.410;9.054;2024-02-21T09:00:14;9.50;;;3.83;;
2396;SDS011;1209;48.410;9.054;2024-02-21T09:02:40;6.57;;;3.60;;
2396;SDS011;1209;48.410;9.054;2024-02-21T09:05:07;9.33;;;4.10;;
2396;SDS011;1209;48.410;9.054;2024-02-21T09:07:33;6.00;;;4.10;;
2396;SDS011;1209;48.410;9.054;2024-02-21T09:09:58;9.00;;;4.20;;
2396;SDS011;1209;48.410;9.054;2024-02-21T09:12:24;10.07;;;3.87;;
2396;SDS011;1209;48.410;9.054;2024-02-21T09:14:49;8.90;;;4.67;;
2396;SDS011;1209;48.410;9.054;2024-02-21T09:17:15;8.60;;;4.00;;
2396;SDS011;1209;48.410;9.054;2024-02-21T09:19:42;10.40;;;3.60;;
2396;SDS011;1209;48.410;9.054;2024-02-21T09:22:07;3.90;;;3.20;;
2396;SDS011;1209;48.410;9.054;2024-02-21T09:24:33;7.67;;;3.27;;
2396;SDS011;1209;48.410;9.054;2024-02-21T09:26:58;6.07;;;3.30;;
2396;SDS011;1209;48.410;9.054;2024-02-21T09:29:23;21.37;;;4.60;;
2396;SDS011;1209;48.410;9.054;2024-02-21T09:31:49;4.97;;;3.40;;
2396;SDS011;1209;48.410;9.054;2024-02-21T09:34:14;11.33;;;4.27;;
2396;SDS011;1209;48.410;9.054;2024-02-21T09:36:39;6.63;;;3.90;;
2396;SDS011;1209;48.410;9.054;2024-02-21T09:39:05;3.97;;;3.10;;
2396;SDS011;1209;48.410;9.054;2024-02-21T09:41:30;6.23;;;3.70;;
2396;SDS011;1209;48.410;9.054;2024-02-21T09:44:01;16.50;;;3.93;;
2396;SDS011;1209;48.410;9.054;2024-02-21T09:51:55;2.90;;;2.60;;
2396;SDS011;1209;48.410;9.054;2024-02-21T09:54:22;3.40;;;1.97;;
2396;SDS011;1209;48.410;9.054;2024-02-21T09:56:48;3.63;;;2.50;;
2396;SDS011;1209;48.410;9.054;2024-02-21T09:59:16;2.80;;;2.20;;
2396;SDS011;1209;48.410;9.054;2024-02-21T10:01:42;2.13;;;2.00;;
2396;SDS011;1209;48.410;9.054;2024-02-21T10:04:09;4.70;;;2.30;;
2396;SDS011;1209;48.410;9.054;2024-02-21T10:06:34;3.10;;;2.40;;
2396;SDS011;1209;48.410;9.054;2024-02-21T10:09:02;4.37;;;2.27;;
2396;SDS011;1209;48.410;9.054;2024-02-21T10:11:28;5.30;;;2.50;;
2396;SDS011;1209;48.410;9.054;2024-02-21T10:14:05;4.73;;;2.20;;
2396;SDS011;1209;48.410;9.054;2024-02-21T10:16:32;4.50;;;2.07;;
2396;SDS011;1209;48.410;9.054;2024-02-21T10:18:58;9.73;;;3.07;;
2396;SDS011;1209;48.410;9.054;2024-02-21T10:21:24;6.63;;;1.70;;
2396;SDS011;1209;48.410;9.054;2024-02-21T10:23:49;3.90;;;2.30;;
2396;SDS011;1209;48.410;9.054;2024-02-21T10:26:16;2.30;;;1.93;;
2396;SDS011;1209;48.410;9.054;2024-02-21T10:28:43;4.93;;;1.87;;
2396;SDS011;1209;48.410;9.054;2024-02-21T10:31:10;2.93;;;1.80;;
2396;SDS011;1209;48.410;9.054;2024-02-21T10:33:36;2.80;;;1.97;;
2396;SDS011;1209;48.410;9.054;2024-02-21T10:36:06;4.33;;;2.07;;
2396;SDS011;1209;48.410;9.054;2024-02-21T10:38:38;5.07;;;1.90;;
2396;SDS011;1209;48.410;9.054;2024-02-21T10:41:07;3.53;;;2.00;;
2396;SDS011;1209;48.410;9.054;2024-02-21T10:43:37;3.00;;;2.30;;
2396;SDS011;1209;48.410;9.054;2024-02-21T10:46:05;3.27;;;1.80;;
2396;SDS011;1209;48.410;9.054;2024-02-21T10:48:33;2.60;;;2.03;;
2396;SDS011;1209;48.410;9.054;2024-02-21T10:58:51;2.70;;;1.90;;
2396;SDS011;1209;48.410;9.054;2024-02-21T11:01:18;2.00;;;1.80;;
2396;SDS011;1209;48.410;9.054;2024-02-21T11:03:44;2.17;;;2.00;;
2396;SDS011;1209;48.410;9.054;2024-02-21T11:06:11;3.37;;;1.60;;
2396;SDS011;1209;48.410;9.054;2024-02-21T11:08:38;4.27;;;2.10;;
2396;SDS011;1209;48.410;9.054;2024-02-21T11:11:04;4.40;;;1.83;;
2396;SDS011;1209;48.410;9.054;2024-02-21T11:13:30;1.30;;;1.20;;
2396;SDS011;1209;48.410;9.054;2024-02-21T11:16:10;2.70;;;1.53;;
2396;SDS011;1209;48.410;9.054;2024-02-21T11:18:37;1.77;;;1.53;;
2396;SDS011;1209;48.410;9.054;2024-02-21T11:21:03;4.37;;;1.53;;
2396;SDS011;1209;48.410;9.054;2024-02-21T11:23:30;1.27;;;1.17;;
2396;SDS011;1209;48.410;9.054;2024-02-21T11:26:08;1.80;;;1.30;;
2396;SDS011;1209;48.410;9.054;2024-02-21T11:28:34;2.40;;;1.70;;
2396;SDS011;1209;48.410;9.054;2024-02-21T11:31:08;1.50;;;1.40;;
2396;SDS011;1209;48.410;9.054;2024-02-21T11:33:34;3.20;;;1.40;;
2396;SDS011;1209;48.410;9.054;2024-02-21T11:36:00;2.87;;;1.20;;
2396;SDS011;1209;48.410;9.054;2024-02-21T11:38:26;2.53;;;1.30;;
2396;SDS011;1209;48.410;9.054;2024-02-21T11:40:51;2.93;;;2.10;;
2396;SDS011;1209;48.410;9.054;2024-02-21T11:43:17;2.70;;;1.53;;
2396;SDS011;1209;48.410;9.054;2024-02-21T11:45:42;2.40;;;1.90;;
2396;SDS011;1209;48.410;9.054;2024-02-21T11:48:07;5.57;;;2.70;;
2396;SDS011;1209;48.410;9.054;2024-02-21T11:50:34;3.47;;;1.80;;
2396;SDS011;1209;48.410;9.054;2024-02-21T11:53:01;1.73;;;1.63;;
2396;SDS011;1209;48.410;9.054;2024-02-21T11:55:26;3.30;;;2.00;;
2396;SDS011;1209;48.410;9.054;2024-02-21T11:57:51;2.90;;;1.73;;
2396;SDS011;1209;48.410;9.054;2024-02-21T12:00:17;1.93;;;1.63;;
2396;SDS011;1209;48.410;9.054;2024-02-21T12:02:46;3.97;;;1.70;;
2396;SDS011;1209;48.410;9.054;2024-02-21T12:05:12;5.53;;;1.77;;
2396;SDS011;1209;48.410;9.054;2024-02-21T12:07:38;8.00;;;1.80;;
2396;SDS011;1209;48.410;9.054;2024-02-21T12:10:10;2.50;;;1.30;;
2396;SDS011;1209;48.410;9.054;2024-02-21T12:12:37;2.70;;;2.47;;
2396;SDS011;1209;48.410;9.054;2024-02-21T12:15:04;1.30;;;1.20;;
2396;SDS011;1209;48.410;9.054;2024-02-21T12:17:30;1.50;;;1.30;;
2396;SDS011;1209;48.410;9.054;2024-02-21T12:20:02;1.90;;;1.40;;
2396;SDS011;1209;48.410;9.054;2024-02-21T12:22:33;1.33;;;1.23;;
2396;SDS011;1209;48.410;9.054;2024-02-21T12:25:02;2.00;;;1.40;;
2396;SDS011;1209;48.410;9.054;2024-02-21T12:27:29;2.00;;;1.90;;
2396;SDS011;1209;48.410;9.054;2024-02-21T12:29:54;3.50;;;1.77;;
2396;SDS011;1209;48.410;9.054;2024-02-21T12:32:20;3.90;;;1.50;;
2396;SDS011;1209;48.410;9.054;2024-02-21T12:34:45;1.00;;;0.90;;
2396;SDS011;1209;48.410;9.054;2024-02-21T12:37:11;1.00;;;1.00;;
2396;SDS011;1209;48.410;9.054;2024-02-21T12:39:38;2.63;;;1.50;;
2396;SDS011;1209;48.410;9.054;2024-02-21T12:42:03;2.07;;;1.30;;
2396;SDS011;1209;48.410;9.054;2024-02-21T12:44:29;1.10;;;1.00;;
2396;SDS011;1209;48.410;9.054;2024-02-21T12:46:54;7.17;;;1.50;;
2396;SDS011;1209;48.410;9.054;2024-02-21T12:49:19;2.00;;;1.40;;
2396;SDS011;1209;48.410;9.054;2024-02-21T12:51:45;1.23;;;1.07;;
2396;SDS011;1209;48.410;9.054;2024-02-21T12:54:13;1.43;;;1.30;;
2396;SDS011;1209;48.410;9.054;2024-02-21T12:56:38;2.83;;;0.90;;
2396;SDS011;1209;48.410;9.054;2024-02-21T12:59:05;0.60;;;0.60;;
2396;SDS011;1209;48.410;9.054;2024-02-21T13:01:30;0.90;;;0.90;;
2396;SDS011;1209;48.410;9.054;2024-02-21T13:03:55;0.70;;;0.70;;
2396;SDS011;1209;48.410;9.054;2024-02-21T13:06:22;0.70;;;0.70;;
2396;SDS011;1209;48.410;9.054;2024-02-21T13:08:47;0.90;;;0.90;;
2396;SDS011;1209;48.410;9.054;2024-02-21T13:11:13;2.13;;;0.70;;
2396;SDS011;1209;48.410;9.054;2024-02-21T13:13:38;0.80;;;0.80;;
2396;SDS011;1209;48.410;9.054;2024-02-21T13:16:03;2.20;;;0.73;;
2396;SDS011;1209;48.410;9.054;2024-02-21T13:18:29;1.40;;;1.10;;
2396;SDS011;1209;48.410;9.054;2024-02-21T13:20:55;1.10;;;1.10;;
2396;SDS011;1209;48.410;9.054;2024-02-21T13:23:20;1.70;;;0.77;;
2396;SDS011;1209;48.410;9.054;2024-02-21T13:25:49;1.00;;;0.77;;
2396;SDS011;1209;48.410;9.054;2024-02-21T13:28:15;0.97;;;0.83;;
2396;SDS011;1209;48.410;9.054;2024-02-21T13:30:41;1.70;;;0.73;;
2396;SDS011;1209;48.410;9.054;2024-02-21T13:33:07;0.60;;;0.60;;
2396;SDS011;1209;48.410;9.054;2024-02-21T13:35:32;2.10;;;0.77;;
2396;SDS011;1209;48.410;9.054;2024-02-21T13:37:57;0.60;;;0.60;;
2396;SDS011;1209;48.410;9.054;2024-02-21T13:40:23;1.17;;;0.90;;
2396;SDS011;1209;48.410;9.054;2024-02-21T13:42:49;0.77;;;0.77;;
2396;SDS011;1209;48.410;9.054;2024-02-21T13:45:16;0.60;;;0.60;;
2396;SDS011;1209;48.410;9.054;2024-02-21T13:47:41;0.80;;;0.80;;
2396;SDS011;1209;48.410;9.054;2024-02-21T13:50:06;0.80;;;0.80;;
2396;SDS011;1209;48.410;9.054;2024-02-21T13:52:36;0.70;;;0.70;;
2396;SDS011;1209;48.410;9.054;2024-02-21T13:55:02;0.90;;;0.90;;
2396;SDS011;1209;48.410;9.054;2024-02-21T13:57:28;1.20;;;1.10;;
2396;SDS011;1209;48.410;9.054;2024-02-21T13:59:53;1.43;;;0.93;;
2396;SDS011;1209;48.410;9.054;2024-02-21T14:02:18;2.30;;;1.10;;
2396;SDS011;1209;48.410;9.054;2024-02-21T14:04:44;0.87;;;0.73;;
2396;SDS011;1209;48.410;9.054;2024-02-21T14:07:09;2.00;;;1.00;;
2396;SDS011;1209;48.410;9.054;2024-02-21T14:09:34;1.40;;;1.10;;
2396;SDS011;1209;48.410;9.054;2024-02-21T14:12:00;0.80;;;0.80;;
2396;SDS011;1209;48.410;9.054;2024-02-21T14:14:25;1.00;;;0.90;;
2396;SDS011;1209;48.410;9.054;2024-02-21T14:16:50;1.13;;;1.03;;
2396;SDS011;1209;48.410;9.054;2024-02-21T14:19:16;1.00;;;0.97;;
2396;SDS011;1209;48.410;9.054;2024-02-21T14:21:42;1.13;;;1.03;;
2396;SDS011;1209;48.410;9.054;2024-02-21T14:24:08;1.23;;;1.13;;
2396;SDS011;1209;48.410;9.054;2024-02-21T14:26:33;1.10;;;1.03;;
2396;SDS011;1209;48.410;9.054;2024-02-21T14:29:00;1.50;;;1.10;;
2396;SDS011;1209;48.410;9.054;2024-02-21T14:31:28;1.33;;;0.90;;
2396;SDS011;1209;48.410;9.054;2024-02-21T14:33:56;0.90;;;0.87;;
2396;SDS011;1209;48.410;9.054;2024-02-21T14:36:21;0.80;;;0.80;;
2396;SDS011;1209;48.410;9.054;2024-02-21T14:38:48;0.87;;;0.87;;
2396;SDS011;1209;48.410;9.054;2024-02-21T14:41:14;1.00;;;1.00;;
2396;SDS011;1209;48.410;9.054;2024-02-21T14:43:39;0.83;;;0.83;;
2396;SDS011;1209;48.410;9.054;2024-02-21T14:46:05;1.17;;;0.80;;
2396;SDS011;1209;48.410;9.054;2024-02-21T14:48:34;3.30;;;1.60;;
2396;SDS011;1209;48.410;9.054;2024-02-21T14:51:00;1.13;;;1.03;;
2396;SDS011;1209;48.410;9.054;2024-02-21T14:53:25;1.90;;;1.27;;
2396;SDS011;1209;48.410;9.054;2024-02-21T14:55:51;3.93;;;1.20;;
2396;SDS011;1209;48.410;9.054;2024-02-21T14:58:16;1.70;;;1.20;;
2396;SDS011;1209;48.410;9.054;2024-02-21T15:00:44;1.57;;;1.07;;
2396;SDS011;1209;48.410;9.054;2024-02-21T15:03:09;0.77;;;0.77;;
2396;SDS011;1209;48.410;9.054;2024-02-21T15:05:40;3.07;;;1.07;;
2396;SDS011;1209;48.410;9.054;2024-02-21T15:08:06;0.77;;;0.70;;
2396;SDS011;1209;48.410;9.054;2024-02-21T15:10:32;1.20;;;1.10;;
2396;SDS011;1209;48.410;9.054;2024-02-21T15:12:58;1.20;;;1.20;;
2396;SDS011;1209;48.410;9.054;2024-02-21T15:15:23;1.43;;;0.80;;
2396;SDS011;1209;48.410;9.054;2024-02-21T15:17:49;1.20;;;1.10;;
2396;SDS011;1209;48.410;9.054;2024-02-21T15:20:15;1.03;;;0.93;;